sensor_id;sensor_type;location;lat;lon;timestamp;temperature;humidity
28247;DHT22;34504;53.178;22.058;2022-08-30T00:02:53;17.90;94.70
28247;DHT22;34504;53.178;22.058;2022-08-30T00:05:22;17.90;94.70
28247;DHT22;34504;53.178;22.058;2022-08-30T00:07:52;17.90;94.60
28247;DHT22;34504;53.178;22.058;2022-08-30T00:10:22;17.90;94.60
28247;DHT22;34504;53.178;22.058;2022-08-30T00:12:52;17.90;94.60
28247;DHT22;34504;53.178;22.058;2022-08-30T00:15:24;17.90;94.70
28247;DHT22;34504;53.178;22.058;2022-08-30T00:17:52;17.90;94.80
28247;DHT22;34504;53.178;22.058;2022-08-30T00:20:23;17.90;94.70
28247;DHT22;34504;53.178;22.058;2022-08-30T00:22:52;17.90;94.80
28247;DHT22;34504;53.178;22.058;2022-08-30T00:25:20;17.90;94.90
28247;DHT22;34504;53.178;22.058;2022-08-30T00:27:50;17.90;94.80
28247;DHT22;34504;53.178;22.058;2022-08-30T00:30:19;17.90;95.00
28247;DHT22;34504;53.178;22.058;2022-08-30T00:32:47;17.80;94.90
28247;DHT22;34504;53.178;22.058;2022-08-30T00:35:16;17.80;95.00
28247;DHT22;34504;53.178;22.058;2022-08-30T00:37:45;17.80;94.90
28247;DHT22;34504;53.178;22.058;2022-08-30T00:40:17;17.80;94.90
28247;DHT22;34504;53.178;22.058;2022-08-30T00:42:57;17.80;94.90
28247;DHT22;34504;53.178;22.058;2022-08-30T00:45:34;17.80;95.00
28247;DHT22;34504;53.178;22.058;2022-08-30T00:48:10;17.80;94.90
28247;DHT22;34504;53.178;22.058;2022-08-30T00:50:42;17.80;95.00
28247;DHT22;34504;53.178;22.058;2022-08-30T00:53:16;17.80;94.90
28247;DHT22;34504;53.178;22.058;2022-08-30T00:55:45;17.80;95.00
28247;DHT22;34504;53.178;22.058;2022-08-30T00:58:27;17.70;95.00
28247;DHT22;34504;53.178;22.058;2022-08-30T01:01:00;17.70;95.00
28247;DHT22;34504;53.178;22.058;2022-08-30T01:03:28;17.80;95.00
28247;DHT22;34504;53.178;22.058;2022-08-30T01:05:57;17.70;95.00
28247;DHT22;34504;53.178;22.058;2022-08-30T01:08:27;17.70;95.10
28247;DHT22;34504;53.178;22.058;2022-08-30T01:10:55;17.70;95.10
28247;DHT22;34504;53.178;22.058;2022-08-30T01:13:25;17.70;95.10
28247;DHT22;34504;53.178;22.058;2022-08-30T01:15:54;17.70;95.20
28247;DHT22;34504;53.178;22.058;2022-08-30T01:18:22;17.60;95.10
28247;DHT22;34504;53.178;22.058;2022-08-30T01:21:02;17.60;95.10
28247;DHT22;34504;53.178;22.058;2022-08-30T01:23:37;17.60;95.10
28247;DHT22;34504;53.178;22.058;2022-08-30T01:26:07;17.60;95.20
28247;DHT22;34504;53.178;22.058;2022-08-30T01:28:37;17.60;95.10
28247;DHT22;34504;53.178;22.058;2022-08-30T01:31:06;17.50;95.10
28247;DHT22;34504;53.178;22.058;2022-08-30T01:33:36;17.50;95.20
28247;DHT22;34504;53.178;22.058;2022-08-30T01:36:08;17.50;95.30
28247;DHT22;34504;53.178;22.058;2022-08-30T01:38:50;17.50;95.30
28247;DHT22;34504;53.178;22.058;2022-08-30T01:41:21;17.50;95.40
28247;DHT22;34504;53.178;22.058;2022-08-30T01:43:51;17.50;95.50
28247;DHT22;34504;53.178;22.058;2022-08-30T01:46:21;17.40;95.50
28247;DHT22;34504;53.178;22.058;2022-08-30T01:48:52;17.50;95.60
28247;DHT22;34504;53.178;22.058;2022-08-30T01:51:25;17.40;95.50
28247;DHT22;34504;53.178;22.058;2022-08-30T01:53:55;17.40;95.50
28247;DHT22;34504;53.178;22.058;2022-08-30T01:56:24;17.40;95.50
28247;DHT22;34504;53.178;22.058;2022-08-30T01:58:53;17.40;95.50
28247;DHT22;34504;53.178;22.058;2022-08-30T02:01:42;17.40;95.40
28247;DHT22;34504;53.178;22.058;2022-08-30T02:04:13;17.30;95.50
28247;DHT22;34504;53.178;22.058;2022-08-30T02:06:41;17.30;95.60
28247;DHT22;34504;53.178;22.058;2022-08-30T02:09:11;17.30;95.60
28247;DHT22;34504;53.178;22.058;2022-08-30T02:11:40;17.30;95.70
28247;DHT22;34504;53.178;22.058;2022-08-30T02:14:11;17.30;95.70
28247;DHT22;34504;53.178;22.058;2022-08-30T02:16:40;17.30;95.90
28247;DHT22;34504;53.178;22.058;2022-08-30T02:19:08;17.30;96.00
28247;DHT22;34504;53.178;22.058;2022-08-30T02:21:39;17.40;96.00
28247;DHT22;34504;53.178;22.058;2022-08-30T02:24:08;17.30;96.10
28247;DHT22;34504;53.178;22.058;2022-08-30T02:26:37;17.40;96.00
28247;DHT22;34504;53.178;22.058;2022-08-30T02:29:07;17.40;96.00
28247;DHT22;34504;53.178;22.058;2022-08-30T02:31:36;17.40;95.90
28247;DHT22;34504;53.178;22.058;2022-08-30T02:34:05;17.40;96.00
28247;DHT22;34504;53.178;22.058;2022-08-30T02:36:33;17.40;95.90
28247;DHT22;34504;53.178;22.058;2022-08-30T02:39:01;17.40;96.10
28247;DHT22;34504;53.178;22.058;2022-08-30T02:41:30;17.40;96.10
28247;DHT22;34504;53.178;22.058;2022-08-30T02:43:58;17.50;96.00
28247;DHT22;34504;53.178;22.058;2022-08-30T02:46:27;17.50;96.10
28247;DHT22;34504;53.178;22.058;2022-08-30T02:49:01;17.50;96.00
28247;DHT22;34504;53.178;22.058;2022-08-30T02:51:53;17.50;96.00
28247;DHT22;34504;53.178;22.058;2022-08-30T02:54:22;17.60;96.00
28247;DHT22;34504;53.178;22.058;2022-08-30T02:56:50;17.60;96.00
28247;DHT22;34504;53.178;22.058;2022-08-30T02:59:19;17.60;95.90
28247;DHT22;34504;53.178;22.058;2022-08-30T03:01:47;17.60;95.90
28247;DHT22;34504;53.178;22.058;2022-08-30T03:04:16;17.60;95.90
28247;DHT22;34504;53.178;22.058;2022-08-30T03:06:55;17.60;95.80
28247;DHT22;34504;53.178;22.058;2022-08-30T03:09:24;17.60;95.80
28247;DHT22;34504;53.178;22.058;2022-08-30T03:11:53;17.70;95.70
28247;DHT22;34504;53.178;22.058;2022-08-30T03:14:21;17.60;95.70
28247;DHT22;34504;53.178;22.058;2022-08-30T03:16:50;17.70;95.80
28247;DHT22;34504;53.178;22.058;2022-08-30T03:19:19;17.60;95.80
28247;DHT22;34504;53.178;22.058;2022-08-30T03:21:48;17.60;95.80
28247;DHT22;34504;53.178;22.058;2022-08-30T03:24:17;17.60;95.80
28247;DHT22;34504;53.178;22.058;2022-08-30T03:26:46;17.60;95.80
28247;DHT22;34504;53.178;22.058;2022-08-30T03:29:17;17.60;95.80
28247;DHT22;34504;53.178;22.058;2022-08-30T03:31:46;17.60;95.80
28247;DHT22;34504;53.178;22.058;2022-08-30T03:34:22;17.60;95.80
28247;DHT22;34504;53.178;22.058;2022-08-30T03:36:55;17.60;95.90
28247;DHT22;34504;53.178;22.058;2022-08-30T03:39:23;17.60;96.00
28247;DHT22;34504;53.178;22.058;2022-08-30T03:41:52;17.60;96.00
28247;DHT22;34504;53.178;22.058;2022-08-30T03:44:21;17.60;96.00
28247;DHT22;34504;53.178;22.058;2022-08-30T03:46:50;17.60;96.00
28247;DHT22;34504;53.178;22.058;2022-08-30T03:49:19;17.60;96.00
28247;DHT22;34504;53.178;22.058;2022-08-30T03:51:49;17.70;96.00
28247;DHT22;34504;53.178;22.058;2022-08-30T03:54:17;17.60;96.00
28247;DHT22;34504;53.178;22.058;2022-08-30T03:56:46;17.70;96.00
28247;DHT22;34504;53.178;22.058;2022-08-30T03:59:14;17.70;95.90
28247;DHT22;34504;53.178;22.058;2022-08-30T04:01:43;17.70;95.90
28247;DHT22;34504;53.178;22.058;2022-08-30T04:04:20;17.70;95.90
28247;DHT22;34504;53.178;22.058;2022-08-30T04:06:50;17.70;95.90
28247;DHT22;34504;53.178;22.058;2022-08-30T04:09:19;17.70;95.90
28247;DHT22;34504;53.178;22.058;2022-08-30T04:11:50;17.70;96.00
28247;DHT22;34504;53.178;22.058;2022-08-30T04:14:18;17.80;96.00
28247;DHT22;34504;53.178;22.058;2022-08-30T04:16:49;17.80;96.00
28247;DHT22;34504;53.178;22.058;2022-08-30T04:19:18;17.80;95.90
28247;DHT22;34504;53.178;22.058;2022-08-30T04:21:47;17.80;96.10
28247;DHT22;34504;53.178;22.058;2022-08-30T04:24:16;17.80;95.90
28247;DHT22;34504;53.178;22.058;2022-08-30T04:26:44;17.80;96.00
28247;DHT22;34504;53.178;22.058;2022-08-30T04:29:13;17.80;96.00
28247;DHT22;34504;53.178;22.058;2022-08-30T04:31:47;17.80;96.00
28247;DHT22;34504;53.178;22.058;2022-08-30T04:34:16;17.90;96.00
28247;DHT22;34504;53.178;22.058;2022-08-30T04:36:44;17.90;96.00
28247;DHT22;34504;53.178;22.058;2022-08-30T04:39:16;17.90;96.10
28247;DHT22;34504;53.178;22.058;2022-08-30T04:41:44;17.90;96.00
28247;DHT22;34504;53.178;22.058;2022-08-30T04:44:13;17.90;96.10
28247;DHT22;34504;53.178;22.058;2022-08-30T04:46:46;18.00;96.10
28247;DHT22;34504;53.178;22.058;2022-08-30T04:49:15;18.00;96.00
28247;DHT22;34504;53.178;22.058;2022-08-30T04:51:43;18.10;96.00
28247;DHT22;34504;53.178;22.058;2022-08-30T04:54:12;18.10;95.90
28247;DHT22;34504;53.178;22.058;2022-08-30T04:56:41;18.20;95.80
28247;DHT22;34504;53.178;22.058;2022-08-30T04:59:10;18.20;95.80
28247;DHT22;34504;53.178;22.058;2022-08-30T05:01:40;18.20;95.80
28247;DHT22;34504;53.178;22.058;2022-08-30T05:04:15;18.30;95.70
28247;DHT22;34504;53.178;22.058;2022-08-30T05:06:50;18.40;95.60
28247;DHT22;34504;53.178;22.058;2022-08-30T05:09:18;18.40;95.70
28247;DHT22;34504;53.178;22.058;2022-08-30T05:11:48;18.40;95.30
28247;DHT22;34504;53.178;22.058;2022-08-30T05:14:17;18.40;95.40
28247;DHT22;34504;53.178;22.058;2022-08-30T05:16:45;18.50;95.40
28247;DHT22;34504;53.178;22.058;2022-08-30T05:19:14;18.50;95.30
28247;DHT22;34504;53.178;22.058;2022-08-30T05:21:45;18.50;95.10
28247;DHT22;34504;53.178;22.058;2022-08-30T05:24:13;18.50;95.10
28247;DHT22;34504;53.178;22.058;2022-08-30T05:26:41;18.60;95.00
28247;DHT22;34504;53.178;22.058;2022-08-30T05:29:10;18.50;95.10
28247;DHT22;34504;53.178;22.058;2022-08-30T05:31:39;18.60;95.10
28247;DHT22;34504;53.178;22.058;2022-08-30T05:34:09;18.60;95.10
28247;DHT22;34504;53.178;22.058;2022-08-30T05:36:39;18.60;95.00
28247;DHT22;34504;53.178;22.058;2022-08-30T05:39:08;18.70;95.10
28247;DHT22;34504;53.178;22.058;2022-08-30T05:41:41;18.70;95.00
28247;DHT22;34504;53.178;22.058;2022-08-30T05:44:10;18.70;95.00
28247;DHT22;34504;53.178;22.058;2022-08-30T05:46:39;18.70;95.00
28247;DHT22;34504;53.178;22.058;2022-08-30T05:49:13;18.80;95.00
28247;DHT22;34504;53.178;22.058;2022-08-30T05:51:42;18.80;94.80
28247;DHT22;34504;53.178;22.058;2022-08-30T05:54:11;18.90;94.70
28247;DHT22;34504;53.178;22.058;2022-08-30T05:56:41;18.90;94.70
28247;DHT22;34504;53.178;22.058;2022-08-30T05:59:12;19.00;94.70
28247;DHT22;34504;53.178;22.058;2022-08-30T06:01:42;19.00;94.40
28247;DHT22;34504;53.178;22.058;2022-08-30T06:04:12;19.10;94.60
28247;DHT22;34504;53.178;22.058;2022-08-30T06:06:42;19.20;94.40
28247;DHT22;34504;53.178;22.058;2022-08-30T06:09:11;19.20;94.00
28247;DHT22;34504;53.178;22.058;2022-08-30T06:11:41;19.30;94.00
28247;DHT22;34504;53.178;22.058;2022-08-30T06:14:10;19.30;93.90
28247;DHT22;34504;53.178;22.058;2022-08-30T06:16:39;19.30;93.80
28247;DHT22;34504;53.178;22.058;2022-08-30T06:19:13;19.30;94.00
28247;DHT22;34504;53.178;22.058;2022-08-30T06:21:42;19.30;93.80
28247;DHT22;34504;53.178;22.058;2022-08-30T06:24:14;19.30;93.50
28247;DHT22;34504;53.178;22.058;2022-08-30T06:26:44;19.30;93.60
28247;DHT22;34504;53.178;22.058;2022-08-30T06:29:23;19.40;93.70
28247;DHT22;34504;53.178;22.058;2022-08-30T06:31:55;19.40;93.60
28247;DHT22;34504;53.178;22.058;2022-08-30T06:34:24;19.40;93.60
28247;DHT22;34504;53.178;22.058;2022-08-30T06:36:54;19.50;93.70
28247;DHT22;34504;53.178;22.058;2022-08-30T06:39:23;19.50;93.10
28247;DHT22;34504;53.178;22.058;2022-08-30T06:41:51;19.60;93.40
28247;DHT22;34504;53.178;22.058;2022-08-30T06:44:32;19.60;93.30
28247;DHT22;34504;53.178;22.058;2022-08-30T06:47:01;19.50;93.10
28247;DHT22;34504;53.178;22.058;2022-08-30T06:49:30;19.50;92.90
28247;DHT22;34504;53.178;22.058;2022-08-30T06:51:58;19.60;93.10
28247;DHT22;34504;53.178;22.058;2022-08-30T06:54:30;19.60;93.20
28247;DHT22;34504;53.178;22.058;2022-08-30T06:56:58;19.70;93.10
28247;DHT22;34504;53.178;22.058;2022-08-30T06:59:27;19.70;92.90
28247;DHT22;34504;53.178;22.058;2022-08-30T07:02:01;19.80;92.80
28247;DHT22;34504;53.178;22.058;2022-08-30T07:04:30;19.90;92.70
28247;DHT22;34504;53.178;22.058;2022-08-30T07:06:58;19.90;92.40
28247;DHT22;34504;53.178;22.058;2022-08-30T07:09:27;19.90;92.40
28247;DHT22;34504;53.178;22.058;2022-08-30T07:12:00;20.00;92.60
28247;DHT22;34504;53.178;22.058;2022-08-30T07:14:29;20.00;92.60
28247;DHT22;34504;53.178;22.058;2022-08-30T07:16:58;20.10;92.60
28247;DHT22;34504;53.178;22.058;2022-08-30T07:19:27;20.10;92.30
28247;DHT22;34504;53.178;22.058;2022-08-30T07:21:55;20.10;92.00
28247;DHT22;34504;53.178;22.058;2022-08-30T07:24:24;20.10;92.20
28247;DHT22;34504;53.178;22.058;2022-08-30T07:26:53;20.10;92.30
28247;DHT22;34504;53.178;22.058;2022-08-30T07:29:24;20.20;92.20
28247;DHT22;34504;53.178;22.058;2022-08-30T07:31:53;20.20;91.80
28247;DHT22;34504;53.178;22.058;2022-08-30T07:34:22;20.30;91.80
28247;DHT22;34504;53.178;22.058;2022-08-30T07:36:54;20.20;91.60
28247;DHT22;34504;53.178;22.058;2022-08-30T07:39:23;20.20;91.80
28247;DHT22;34504;53.178;22.058;2022-08-30T07:41:51;20.30;91.80
28247;DHT22;34504;53.178;22.058;2022-08-30T07:44:22;20.30;91.60
28247;DHT22;34504;53.178;22.058;2022-08-30T07:46:51;20.40;91.40
28247;DHT22;34504;53.178;22.058;2022-08-30T07:49:20;20.40;91.30
28247;DHT22;34504;53.178;22.058;2022-08-30T07:51:49;20.50;91.30
28247;DHT22;34504;53.178;22.058;2022-08-30T07:54:19;20.50;91.00
28247;DHT22;34504;53.178;22.058;2022-08-30T07:56:47;20.40;91.00
28247;DHT22;34504;53.178;22.058;2022-08-30T07:59:16;20.30;90.80
28247;DHT22;34504;53.178;22.058;2022-08-30T08:01:44;20.30;90.90
28247;DHT22;34504;53.178;22.058;2022-08-30T08:04:22;20.10;90.80
28247;DHT22;34504;53.178;22.058;2022-08-30T08:06:51;20.10;91.10
28247;DHT22;34504;53.178;22.058;2022-08-30T08:09:19;20.10;91.40
28247;DHT22;34504;53.178;22.058;2022-08-30T08:11:49;20.30;91.40
28247;DHT22;34504;53.178;22.058;2022-08-30T08:14:18;20.40;91.10
28247;DHT22;34504;53.178;22.058;2022-08-30T08:16:48;20.50;91.30
28247;DHT22;34504;53.178;22.058;2022-08-30T08:19:17;20.60;91.10
28247;DHT22;34504;53.178;22.058;2022-08-30T08:21:47;20.70;91.00
28247;DHT22;34504;53.178;22.058;2022-08-30T08:24:36;20.80;90.30
28247;DHT22;34504;53.178;22.058;2022-08-30T08:27:05;20.90;90.50
28247;DHT22;34504;53.178;22.058;2022-08-30T08:29:33;21.00;90.00
28247;DHT22;34504;53.178;22.058;2022-08-30T08:32:02;21.00;88.30
28247;DHT22;34504;53.178;22.058;2022-08-30T08:34:30;21.10;88.80
28247;DHT22;34504;53.178;22.058;2022-08-30T08:36:59;21.20;88.90
28247;DHT22;34504;53.178;22.058;2022-08-30T08:39:28;21.20;87.40
28247;DHT22;34504;53.178;22.058;2022-08-30T08:42:10;21.30;87.70
28247;DHT22;34504;53.178;22.058;2022-08-30T08:47:39;21.30;87.50
28247;DHT22;34504;53.178;22.058;2022-08-30T08:50:13;21.30;87.30
28247;DHT22;34504;53.178;22.058;2022-08-30T08:55:32;21.30;87.30
28247;DHT22;34504;53.178;22.058;2022-08-30T08:58:01;21.30;87.40
28247;DHT22;34504;53.178;22.058;2022-08-30T09:00:33;21.30;86.80
28247;DHT22;34504;53.178;22.058;2022-08-30T09:03:02;21.30;86.70
28247;DHT22;34504;53.178;22.058;2022-08-30T09:05:34;21.40;87.40
28247;DHT22;34504;53.178;22.058;2022-08-30T09:08:12;21.40;87.00
28247;DHT22;34504;53.178;22.058;2022-08-30T09:10:47;21.50;85.70
28247;DHT22;34504;53.178;22.058;2022-08-30T09:13:18;21.50;86.20
28247;DHT22;34504;53.178;22.058;2022-08-30T09:15:52;21.50;86.70
28247;DHT22;34504;53.178;22.058;2022-08-30T09:18:45;21.50;86.00
28247;DHT22;34504;53.178;22.058;2022-08-30T09:21:22;21.50;86.10
28247;DHT22;34504;53.178;22.058;2022-08-30T09:23:56;21.50;86.40
28247;DHT22;34504;53.178;22.058;2022-08-30T09:26:27;21.50;85.70
28247;DHT22;34504;53.178;22.058;2022-08-30T09:28:57;21.50;85.30
28247;DHT22;34504;53.178;22.058;2022-08-30T09:31:28;21.50;84.60
28247;DHT22;34504;53.178;22.058;2022-08-30T09:36:38;21.50;83.90
28247;DHT22;34504;53.178;22.058;2022-08-30T09:39:25;21.40;84.30
28247;DHT22;34504;53.178;22.058;2022-08-30T09:42:09;21.40;84.30
28247;DHT22;34504;53.178;22.058;2022-08-30T09:44:40;21.40;83.60
28247;DHT22;34504;53.178;22.058;2022-08-30T09:47:17;21.50;83.30
28247;DHT22;34504;53.178;22.058;2022-08-30T09:49:54;21.50;83.40
28247;DHT22;34504;53.178;22.058;2022-08-30T09:52:55;21.50;83.10
28247;DHT22;34504;53.178;22.058;2022-08-30T09:55:48;21.40;83.20
28247;DHT22;34504;53.178;22.058;2022-08-30T10:04:52;21.10;86.50
28247;DHT22;34504;53.178;22.058;2022-08-30T10:08:11;21.10;86.80
28247;DHT22;34504;53.178;22.058;2022-08-30T10:10:35;21.10;87.30
28247;DHT22;34504;53.178;22.058;2022-08-30T10:13:28;21.10;86.90
28247;DHT22;34504;53.178;22.058;2022-08-30T10:19:24;21.10;85.80
28247;DHT22;34504;53.178;22.058;2022-08-30T10:21:29;21.20;86.10
28247;DHT22;34504;53.178;22.058;2022-08-30T10:24:01;21.20;85.80
28247;DHT22;34504;53.178;22.058;2022-08-30T10:29:38;21.20;85.90
28247;DHT22;34504;53.178;22.058;2022-08-30T10:32:32;21.30;85.80
28247;DHT22;34504;53.178;22.058;2022-08-30T10:35:46;21.40;86.00
28247;DHT22;34504;53.178;22.058;2022-08-30T10:38:10;21.50;86.30
28247;DHT22;34504;53.178;22.058;2022-08-30T10:40:38;21.60;85.40
28247;DHT22;34504;53.178;22.058;2022-08-30T10:44:29;21.70;84.90
28247;DHT22;34504;53.178;22.058;2022-08-30T10:46:32;21.70;83.70
28247;DHT22;34504;53.178;22.058;2022-08-30T10:49:02;21.70;83.30
28247;DHT22;34504;53.178;22.058;2022-08-30T10:51:37;21.80;83.80
28247;DHT22;34504;53.178;22.058;2022-08-30T10:56:37;21.90;83.70
28247;DHT22;34504;53.178;22.058;2022-08-30T10:59:07;22.00;83.20
28247;DHT22;34504;53.178;22.058;2022-08-30T11:09:48;22.20;82.60
28247;DHT22;34504;53.178;22.058;2022-08-30T11:12:29;22.30;81.50
28247;DHT22;34504;53.178;22.058;2022-08-30T11:18:08;22.40;82.40
28247;DHT22;34504;53.178;22.058;2022-08-30T11:20:48;22.50;81.30
28247;DHT22;34504;53.178;22.058;2022-08-30T11:23:28;22.50;81.30
28247;DHT22;34504;53.178;22.058;2022-08-30T11:26:06;22.40;82.00
28247;DHT22;34504;53.178;22.058;2022-08-30T11:33:46;22.50;81.50
28247;DHT22;34504;53.178;22.058;2022-08-30T11:39:06;22.60;81.60
28247;DHT22;34504;53.178;22.058;2022-08-30T11:46:51;22.50;81.10
28247;DHT22;34504;53.178;22.058;2022-08-30T11:57:40;22.30;80.50
28247;DHT22;34504;53.178;22.058;2022-08-30T12:10:57;22.30;80.70
28247;DHT22;34504;53.178;22.058;2022-08-30T12:16:12;22.20;80.10
28247;DHT22;34504;53.178;22.058;2022-08-30T12:18:44;22.20;80.00
28247;DHT22;34504;53.178;22.058;2022-08-30T12:29:07;22.30;80.70
28247;DHT22;34504;53.178;22.058;2022-08-30T12:31:41;22.20;80.20
28247;DHT22;34504;53.178;22.058;2022-08-30T12:34:54;22.00;81.80
28247;DHT22;34504;53.178;22.058;2022-08-30T12:37:21;21.90;83.00
28247;DHT22;34504;53.178;22.058;2022-08-30T12:42:59;21.60;85.50
28247;DHT22;34504;53.178;22.058;2022-08-30T12:45:35;21.60;87.00
28247;DHT22;34504;53.178;22.058;2022-08-30T12:48:16;21.50;86.90
28247;DHT22;34504;53.178;22.058;2022-08-30T12:53:32;21.60;86.50
28247;DHT22;34504;53.178;22.058;2022-08-30T12:56:03;21.70;85.80
28247;DHT22;34504;53.178;22.058;2022-08-30T13:01:26;21.80;85.80
28247;DHT22;34504;53.178;22.058;2022-08-30T13:06:54;21.90;83.40
28247;DHT22;34504;53.178;22.058;2022-08-30T13:09:36;21.90;82.60
28247;DHT22;34504;53.178;22.058;2022-08-30T13:12:08;21.80;83.10
28247;DHT22;34504;53.178;22.058;2022-08-30T13:14:39;21.70;83.90
28247;DHT22;34504;53.178;22.058;2022-08-30T13:17:10;21.70;83.50
28247;DHT22;34504;53.178;22.058;2022-08-30T13:19:41;21.70;82.40
28247;DHT22;34504;53.178;22.058;2022-08-30T13:22:28;21.60;83.30
28247;DHT22;34504;53.178;22.058;2022-08-30T13:24:58;21.50;84.00
28247;DHT22;34504;53.178;22.058;2022-08-30T13:27:29;21.50;84.50
28247;DHT22;34504;53.178;22.058;2022-08-30T13:30:08;21.40;84.50
28247;DHT22;34504;53.178;22.058;2022-08-30T13:32:41;21.40;85.10
28247;DHT22;34504;53.178;22.058;2022-08-30T13:35:11;21.30;85.30
28247;DHT22;34504;53.178;22.058;2022-08-30T13:37:41;21.20;85.60
28247;DHT22;34504;53.178;22.058;2022-08-30T13:40:19;21.10;86.20
28247;DHT22;34504;53.178;22.058;2022-08-30T13:42:49;21.10;86.50
28247;DHT22;34504;53.178;22.058;2022-08-30T13:45:18;21.00;86.80
28247;DHT22;34504;53.178;22.058;2022-08-30T13:48:13;21.00;87.20
28247;DHT22;34504;53.178;22.058;2022-08-30T13:50:54;20.80;88.00
28247;DHT22;34504;53.178;22.058;2022-08-30T13:53:25;20.70;89.20
28247;DHT22;34504;53.178;22.058;2022-08-30T13:56:15;20.70;88.60
28247;DHT22;34504;53.178;22.058;2022-08-30T13:58:50;20.70;89.10
28247;DHT22;34504;53.178;22.058;2022-08-30T14:01:19;20.60;88.80
28247;DHT22;34504;53.178;22.058;2022-08-30T14:03:49;20.60;89.20
28247;DHT22;34504;53.178;22.058;2022-08-30T14:06:41;20.60;88.90
28247;DHT22;34504;53.178;22.058;2022-08-30T14:09:30;20.60;89.20
28247;DHT22;34504;53.178;22.058;2022-08-30T14:11:59;20.60;89.80
28247;DHT22;34504;53.178;22.058;2022-08-30T14:14:29;20.60;90.00
28247;DHT22;34504;53.178;22.058;2022-08-30T14:17:13;20.60;90.20
28247;DHT22;34504;53.178;22.058;2022-08-30T14:19:42;20.70;90.20
28247;DHT22;34504;53.178;22.058;2022-08-30T14:22:11;20.70;89.50
28247;DHT22;34504;53.178;22.058;2022-08-30T14:24:40;20.70;89.70
28247;DHT22;34504;53.178;22.058;2022-08-30T14:27:09;20.70;88.60
28247;DHT22;34504;53.178;22.058;2022-08-30T14:29:39;20.60;88.90
28247;DHT22;34504;53.178;22.058;2022-08-30T14:32:11;20.60;89.30
28247;DHT22;34504;53.178;22.058;2022-08-30T14:34:40;20.60;89.30
28247;DHT22;34504;53.178;22.058;2022-08-30T14:37:09;20.50;89.70
28247;DHT22;34504;53.178;22.058;2022-08-30T14:39:39;20.50;90.10
28247;DHT22;34504;53.178;22.058;2022-08-30T14:42:11;20.40;90.30
28247;DHT22;34504;53.178;22.058;2022-08-30T14:44:46;20.40;90.30
28247;DHT22;34504;53.178;22.058;2022-08-30T14:47:24;20.30;90.40
28247;DHT22;34504;53.178;22.058;2022-08-30T14:49:57;20.20;91.00
28247;DHT22;34504;53.178;22.058;2022-08-30T14:52:28;20.20;91.40
28247;DHT22;34504;53.178;22.058;2022-08-30T14:54:58;20.10;91.80
28247;DHT22;34504;53.178;22.058;2022-08-30T14:57:37;20.00;92.10
28247;DHT22;34504;53.178;22.058;2022-08-30T15:00:07;20.00;92.40
28247;DHT22;34504;53.178;22.058;2022-08-30T15:02:37;20.00;92.20
28247;DHT22;34504;53.178;22.058;2022-08-30T15:05:06;20.00;92.40
28247;DHT22;34504;53.178;22.058;2022-08-30T15:07:35;20.00;92.20
28247;DHT22;34504;53.178;22.058;2022-08-30T15:10:05;20.10;92.10
28247;DHT22;34504;53.178;22.058;2022-08-30T15:12:35;20.10;92.00
28247;DHT22;34504;53.178;22.058;2022-08-30T15:15:05;20.10;92.20
28247;DHT22;34504;53.178;22.058;2022-08-30T15:17:35;20.10;91.70
28247;DHT22;34504;53.178;22.058;2022-08-30T15:20:06;20.10;91.00
28247;DHT22;34504;53.178;22.058;2022-08-30T15:22:38;20.10;91.20
28247;DHT22;34504;53.178;22.058;2022-08-30T15:25:13;20.10;91.30
28247;DHT22;34504;53.178;22.058;2022-08-30T15:27:42;20.00;91.30
28247;DHT22;34504;53.178;22.058;2022-08-30T15:30:11;20.00;91.60
28247;DHT22;34504;53.178;22.058;2022-08-30T15:32:41;19.90;91.60
28247;DHT22;34504;53.178;22.058;2022-08-30T15:35:13;19.80;91.70
28247;DHT22;34504;53.178;22.058;2022-08-30T15:37:46;19.80;91.90
28247;DHT22;34504;53.178;22.058;2022-08-30T15:40:15;19.80;92.00
28247;DHT22;34504;53.178;22.058;2022-08-30T15:42:45;19.90;92.10
28247;DHT22;34504;53.178;22.058;2022-08-30T15:45:19;19.80;92.10
28247;DHT22;34504;53.178;22.058;2022-08-30T15:47:50;19.80;92.10
28247;DHT22;34504;53.178;22.058;2022-08-30T15:50:22;19.70;92.30
28247;DHT22;34504;53.178;22.058;2022-08-30T15:52:53;19.70;92.30
28247;DHT22;34504;53.178;22.058;2022-08-30T15:55:22;19.70;92.40
28247;DHT22;34504;53.178;22.058;2022-08-30T15:57:56;19.70;92.40
28247;DHT22;34504;53.178;22.058;2022-08-30T16:00:25;19.70;92.30
28247;DHT22;34504;53.178;22.058;2022-08-30T16:02:57;19.80;92.50
28247;DHT22;34504;53.178;22.058;2022-08-30T16:05:25;19.80;92.40
28247;DHT22;34504;53.178;22.058;2022-08-30T16:07:56;19.80;92.40
28247;DHT22;34504;53.178;22.058;2022-08-30T16:10:25;19.70;92.50
28247;DHT22;34504;53.178;22.058;2022-08-30T16:12:57;19.70;92.50
28247;DHT22;34504;53.178;22.058;2022-08-30T16:15:29;19.70;92.70
28247;DHT22;34504;53.178;22.058;2022-08-30T16:18:02;19.70;92.60
28247;DHT22;34504;53.178;22.058;2022-08-30T16:20:31;19.70;92.70
28247;DHT22;34504;53.178;22.058;2022-08-30T16:23:00;19.70;92.70
28247;DHT22;34504;53.178;22.058;2022-08-30T16:25:29;19.70;92.70
28247;DHT22;34504;53.178;22.058;2022-08-30T16:28:08;19.70;92.80
28247;DHT22;34504;53.178;22.058;2022-08-30T16:30:37;19.80;92.80
28247;DHT22;34504;53.178;22.058;2022-08-30T16:33:06;19.80;92.60
28247;DHT22;34504;53.178;22.058;2022-08-30T16:35:35;19.70;92.60
28247;DHT22;34504;53.178;22.058;2022-08-30T16:38:05;19.80;92.60
28247;DHT22;34504;53.178;22.058;2022-08-30T16:40:34;19.80;92.70
28247;DHT22;34504;53.178;22.058;2022-08-30T16:43:04;19.80;92.80
28247;DHT22;34504;53.178;22.058;2022-08-30T16:45:33;19.80;92.90
28247;DHT22;34504;53.178;22.058;2022-08-30T16:48:07;19.70;92.80
28247;DHT22;34504;53.178;22.058;2022-08-30T16:50:39;19.70;92.90
28247;DHT22;34504;53.178;22.058;2022-08-30T16:53:09;19.70;92.90
28247;DHT22;34504;53.178;22.058;2022-08-30T16:55:41;19.70;92.90
28247;DHT22;34504;53.178;22.058;2022-08-30T16:58:12;19.70;92.90
28247;DHT22;34504;53.178;22.058;2022-08-30T17:00:46;19.70;92.90
28247;DHT22;34504;53.178;22.058;2022-08-30T17:03:16;19.70;92.90
28247;DHT22;34504;53.178;22.058;2022-08-30T17:05:48;19.70;92.90
28247;DHT22;34504;53.178;22.058;2022-08-30T17:08:32;19.60;93.00
28247;DHT22;34504;53.178;22.058;2022-08-30T17:11:02;19.60;93.10
28247;DHT22;34504;53.178;22.058;2022-08-30T17:13:33;19.60;93.10
28247;DHT22;34504;53.178;22.058;2022-08-30T17:16:02;19.60;93.10